Share

Salcha, AK (99714)

Allen Army Air Field (PABI) Elev 1306 ft | 63.99 °N, 145.72 °W | Change Station

Current weather conditions updated 8 minutes ago

Scattered Clouds
Scattered Clouds
33 °F
Feels Like 29 °F
N
5
Wind Variable Wind from East
Sunrise 5:49 AM
Sunset 9:35 PM
Moon Waning Gibbous

Today is forecast to be Much Cooler than yesterday.

Pressure 29.69 in
Visibility 10.0 miles
Clouds Few 6000 ft
Scattered Clouds 20000 ft
Windchill 29 °F
Dew Point 24 °F
Humidity 70%
Rainfall 0.00 in
Snow Depth 9 in , 39 in
UV 0 out of 16
Pollen Not available.
Air Quality Not available.
Flu Activity Sporadic
METAR PABI 201353Z 09004KT 10SM FEW060 SCT200 01/M04 A2965 RMK AO2 SLP054 T00061044

More Conditions Fewer Conditions

Pressure 29.69 in
Visibility 10.0 miles
Clouds Few 6000 ft
Scattered Clouds 20000 ft
Windchill 29 °F
Dew Point 24 °F
Humidity 70%
Rainfall 0.00 in
Snow Depth 9 in , 39 in
UV 0 out of 16
Pollen Not available.
Air Quality Not available.
Flu Activity Sporadic
METAR PABI 201353Z 09004KT 10SM FEW060 SCT200 01/M04 A2965 RMK AO2 SLP054 T00061044

More Conditions Fewer Conditions

10-Day Weather Forecast

Almanac

Astronomy

Apr. 20, 2014 Rise Set
Actual Time 5:49 AM AKDT 9:35 PM AKDT
Civil Twilight 4:48 AM AKDT 10:37 PM AKDT
Nautical Twilight 3:06 AM AKDT 12:23 AM AKDT
Astronomical Twilight Sun does not rise Sun does not rise
Moon 3:13 AM AKDT 9:30 AM AKDT
Length of Visible Light 17h 48m
Length of Day
15h 46m
Tomorrow will be 6m 53s longer.
Waning Gibbous, 69% of the Moon is Illuminated
Today
Waning Gibbous
Apr 22
Last Quarter
Apr 29
New
May 6
First Quarter
May 14
Full

Today's Extremes

State Highs State Lows

Community

  • Easter Sunrise
    Easter Sunrise
  • Happy Easter
    Happy Easter
  • EARLY FOGGY MORNING
    EARLY FOGGY MORNING
  • Easter Greetings
    Easter Greetings
  • Sunny day at the coast-Cape Arago Lighthouse
    Sunny day at the coast-Cape Arago Lighthouse

WunderPhotos

Upload Photos

1,703,218 photos uploaded!

Nearby

Snow Depth

Station Depth Elevation
Teuchet Creek 9 in 1640 ft
Munson Ridge 39 in 3100 ft
Monument Creek 14 in 1850 ft
Upper Chena 35 in 2850 ft
Mt. Ryan 24 in 2800 ft

Coastal Water Temperatures

Place Temperature
No Stations Reporting

Earthquake Activity

City Distance Mag. Time & Date
No recent earthquake activity has been reported nearby.
Minimum magnitude displayed is 2.5.

Nearby Weather Stations

Station Location Temp. Windchill Dew Point Humidity Wind Precip. Elev Updated Type
RAWS SALCHA AK, Salcha, AK 29 °F 29 °F 20 °F 69% East  at  3 mph 0.00 in / hr 1000 ft 4:52 AM AKDT MADIS

Show More Stations Show Fewer Stations

What do you think?

We're not finished. Please let us know what you like, what you don't like, and what you are still missing.